Latest Weather Observations for Geelong Racecourse

IDV60901

Issued at 3:31 pm EST Tuesday 26 May 2015 (issued every 10 minutes, with the page automatically refreshed every 10 minutes)

About weather observations | Map of Melbourne area stations | Latest observations for Melbourne area | Other Formats
Station Details ID: 087184 Name: GEELONG RACECOURSE Lat: -38.17 Lon: 144.38 Height: 12.9 m
Data from the previous 72 hours. | See also: Recent months at Geelong Racecourse
Date/Time
EST
Tmp

°C
App
Tmp
°C
Dew
Point
°C
Rel
Hum
%
Delta-T

°C
Wind Press
QNH
hPa
Press
MSL
hPa
Rain
since
9 am
mm
Dir
 
Spd
km/h
Gust
km/h
Spd
kts
Gust
kts
26/03:30pm 12.8 11.2 8.1 73 2.3 NE 6 9 3 5 1025.1 1025.1 0.0
26/03:00pm 12.6 11.2 8.9 78 1.8 NNE 6 7 3 4 1025.3 1025.3 0.0
26/02:30pm 12.3 10.6 8.2 76 2.0 ENE 7 9 4 5 1025.3 1025.3 0.0
26/02:00pm 12.3 10.8 8.4 77 1.9 NNE 6 9 3 5 1025.8 1025.8 0.0
26/01:30pm 12.1 11.0 8.4 78 1.8 NE 4 6 2 3 1026.3 1026.3 0.0
26/01:00pm 11.7 9.9 8.0 78 1.8 ENE 7 9 4 5 1026.6 1026.6 0.0
26/12:30pm 12.3 11.1 8.0 75 2.1 NE 4 6 2 3 1027.1 1027.1 0.0
26/12:00pm 12.7 11.6 8.4 75 2.1 NE 4 6 2 3 1027.3 1027.3 0.0
26/11:30am 11.9 10.3 7.8 76 2.0 NNE 6 7 3 4 1027.9 1027.9 0.0
26/11:00am 11.8 10.6 7.9 77 1.9 NNE 4 7 2 4 1028.7 1028.7 0.0
26/10:30am 10.6 9.1 8.4 86 1.1 NW 6 7 3 4 1029.2 1029.2 0.0
26/10:00am 10.1 8.7 8.9 92 0.6 NNW 6 7 3 4 1029.2 1029.2 0.0
26/09:30am 9.3 7.7 8.2 93 0.5 NW 6 7 3 4 1029.4 1029.4 0.0
26/09:00am 8.3 6.5 7.2 93 0.5 NW 6 7 3 4 1029.4 1029.4 0.0
26/08:30am 6.8 4.7 5.9 94 0.4 NW 6 11 3 6 1029.4 1029.4 0.0
26/08:00am 5.8 3.3 4.9 94 0.4 NW 7 9 4 5 1029.3 1029.3 0.0
26/07:30am 5.2 2.2 4.3 94 0.4 NW 9 13 5 7 1029.2 1029.2 0.0
26/07:00am 5.0 2.0 4.1 94 0.4 NW 9 13 5 7 1029.1 1029.1 0.0
26/06:30am 4.7 2.2 3.8 94 0.4 NNW 6 7 3 4 1028.9 1028.9 0.0
26/06:00am 4.5 2.7 3.6 94 0.4 N 2 4 1 2 1028.8 1028.8 0.0
26/05:30am 4.8 2.3 3.9 94 0.4 NNW 6 7 3 4 1028.9 1028.9 0.0
26/05:00am 5.0 2.6 4.1 94 0.4 N 6 7 3 4 1028.8 1028.8 0.0
26/04:30am 5.5 3.5 4.6 94 0.4 N 4 6 2 3 1028.8 1028.8 0.0
26/04:00am 5.3 3.3 4.4 94 0.4 NW 4 6 2 3 1028.8 1028.8 0.0
26/03:30am 5.4 4.2 4.5 94 0.4 CALM 0 0 0 0 1028.8 1028.8 0.0
26/03:00am 5.4 4.2 4.4 93 0.4 CALM 0 4 0 2 1029.0 1029.0 0.0
26/02:30am 6.5 5.1 5.6 94 0.4 NW 2 2 1 1 1029.2 1029.2 0.0
26/02:00am 6.3 4.1 5.4 94 0.4 WNW 6 7 3 4 1029.2 1029.2 0.0
26/01:30am 6.6 4.9 5.7 94 0.4 NNW 4 4 2 2 1029.2 1029.2 0.0
26/01:00am 6.3 5.3 5.4 94 0.4 CALM 0 2 0 1 1029.4 1029.4 0.0
26/12:30am 6.5 4.7 5.6 94 0.4 WNW 4 4 2 2 1029.3 1029.3 0.0
26/12:00am 7.2 5.6 6.3 94 0.4 WNW 4 6 2 3 1029.5 1029.5 0.0
 
Date/Time
EST
Tmp

°C
App
Tmp
°C
Dew
Point
°C
Rel
Hum
%
Delta-T

°C
Wind Press
QNH
hPa
Press
MSL
hPa
Rain
since
9 am
mm
Dir
 
Spd
km/h
Gust
km/h
Spd
kts
Gust
kts
25/11:30pm 7.3 5.3 6.4 94 0.4 NW 6 7 3 4 1029.5 1029.5 0.0
25/11:00pm 6.9 4.8 6.0 94 0.4 NW 6 6 3 3 1029.6 1029.6 0.0
25/10:30pm 7.1 5.4 6.0 93 0.5 NW 4 7 2 4 1029.8 1029.8 0.0
25/10:00pm 7.2 5.9 6.1 93 0.5 NNW 2 2 1 1 1030.0 1030.0 0.0
25/09:30pm 8.0 7.3 6.9 93 0.5 CALM 0 0 0 0 1029.9 1029.9 0.0
25/09:00pm 7.9 6.8 6.8 93 0.5 NE 2 2 1 1 1029.9 1029.9 0.0
25/08:30pm 8.4 7.0 7.3 93 0.5 NE 4 4 2 2 1029.9 1029.9 0.0
25/08:00pm 8.9 8.4 7.8 93 0.5 CALM 0 0 0 0 1029.9 1029.9 0.0
25/07:30pm 9.3 8.9 8.2 93 0.5 CALM 0 0 0 0 1029.8 1029.8 0.0
25/07:00pm 10.5 10.4 9.3 92 0.6 CALM 0 0 0 0 1029.6 1029.6 0.0
25/06:30pm 10.7 10.6 9.3 91 0.7 CALM 0 0 0 0 1029.4 1029.4 0.0
25/06:00pm 12.2 11.3 9.2 82 1.5 NE 4 6 2 3 1029.1 1029.1 0.0
25/05:30pm 13.0 11.6 8.7 75 2.2 NE 6 7 3 4 1028.7 1028.7 0.0
25/05:00pm 14.2 12.7 8.6 69 2.8 ENE 6 11 3 6 1028.4 1028.4 0.0
25/04:30pm 15.1 13.5 7.9 62 3.6 ENE 6 9 3 5 1028.5 1028.5 0.0
25/04:00pm 15.5 13.7 8.0 61 3.7 NE 7 9 4 5 1028.5 1028.5 0.0
25/03:30pm 15.6 13.6 8.6 63 3.6 NE 9 13 5 7 1028.5 1028.5 0.0
25/03:00pm 15.7 13.6 8.4 62 3.7 NE 9 11 5 6 1028.5 1028.5 0.0
25/02:30pm 16.2 14.8 8.9 62 3.7 NE 6 9 3 5 1028.7 1028.7 0.0
25/02:00pm 15.5 13.5 8.7 64 3.4 NNE 9 13 5 7 1028.8 1028.8 0.0
25/01:30pm 14.8 12.8 8.5 66 3.2 NE 9 13 5 7 1029.2 1029.2 0.0
25/01:00pm 14.1 12.0 8.1 67 3.0 NE 9 13 5 7 1029.6 1029.6 0.0
25/12:30pm 14.1 11.9 7.9 66 3.1 NNE 9 13 5 7 1029.8 1029.8 0.0
25/12:00pm 14.7 12.9 8.0 64 3.3 N 7 9 4 5 1030.3 1030.3 0.0
25/11:30am 14.2 12.7 8.6 69 2.8 NE 6 9 3 5 1030.8 1030.8 0.0
25/11:00am 13.6 12.8 9.5 76 2.1 WNW 4 6 2 3 1031.3 1031.3 0.0
25/10:30am 11.7 11.1 10.4 92 0.7 NNW 4 9 2 5 1031.4 1031.4 0.0
25/10:00am 9.7 8.6 8.6 93 0.5 ESE 4 6 2 3 1031.2 1031.2 0.0
25/09:30am 9.1 7.9 8.0 93 0.5 SSW 4 4 2 2 1031.2 1031.2 0.0
25/09:00am 8.8 7.9 7.9 94 0.4 NW 2 2 1 1 1031.2 1031.2 0.0
25/08:30am 7.3 5.3 6.4 94 0.4 NNW 6 7 3 4 1031.3 1031.3 0.0
25/08:00am 6.8 5.8 5.7 93 0.5 CALM 0 2 0 1 1031.3 1031.3 0.0
25/07:30am 6.7 5.3 5.7 93 0.4 WNW 2 4 1 2 1031.2 1031.2 0.0
25/07:00am 6.7 5.0 5.8 94 0.4 NNW 4 6 2 3 1030.9 1030.9 0.0
25/06:30am 6.6 4.9 5.7 94 0.4 NW 4 4 2 2 1030.8 1030.8 0.0
25/06:00am 6.2 4.4 5.2 93 0.4 NW 4 6 2 3 1030.7 1030.7 0.0
25/05:30am 6.0 4.5 5.0 93 0.4 WSW 2 4 1 2 1030.1 1030.1 0.0
25/05:00am 5.9 4.8 4.9 93 0.4 CALM 0 0 0 0 1029.9 1029.9 0.0
25/04:30am 5.9 4.4 4.9 93 0.4 SW 2 4 1 2 1030.0 1030.0 0.0
25/04:00am 6.2 5.1 5.2 93 0.4 CALM 0 0 0 0 1029.8 1029.8 0.0
25/03:30am 6.6 5.6 5.6 93 0.4 CALM 0 0 0 0 1029.7 1029.7 0.0
25/03:00am 6.6 5.6 5.6 93 0.4 CALM 0 0 0 0 1029.9 1029.9 0.0
25/02:30am 7.1 6.2 6.0 93 0.5 CALM 0 0 0 0 1030.3 1030.3 0.0
25/02:00am 7.1 5.8 6.0 93 0.5 N 2 2 1 1 1030.3 1030.3 0.0
25/01:30am 7.3 5.3 6.2 93 0.5 NNW 6 6 3 3 1030.0 1030.0 0.0
25/01:00am 7.8 6.6 6.6 92 0.5 WNW 2 4 1 2 1030.2 1030.2 0.0
25/12:30am 8.0 6.9 6.8 92 0.6 NNW 2 4 1 2 1030.6 1030.6 0.0
25/12:00am 8.3 6.5 7.1 92 0.6 N 6 7 3 4 1030.6 1030.6 0.0
 
Date/Time
EST
Tmp

°C
App
Tmp
°C
Dew
Point
°C
Rel
Hum
%
Delta-T

°C
Wind Press
QNH
hPa
Press
MSL
hPa
Rain
since
9 am
mm
Dir
 
Spd
km/h
Gust
km/h
Spd
kts
Gust
kts
24/11:30pm 8.7 6.8 7.5 92 0.6 N 7 9 4 5 1030.5 1030.5 0.0
24/11:00pm 8.6 6.7 7.5 93 0.5 N 7 7 4 4 1030.6 1030.6 0.0
24/10:30pm 7.5 5.5 6.4 93 0.5 N 6 7 3 4 1030.6 1030.6 0.0
24/10:00pm 7.2 6.3 6.1 93 0.5 CALM 0 0 0 0 1030.8 1030.8 0.0
24/09:30pm 7.5 6.7 6.4 93 0.5 CALM 0 0 0 0 1030.8 1030.8 0.0
24/09:00pm 7.8 7.0 6.7 93 0.5 CALM 0 0 0 0 1030.8 1030.8 0.0
24/08:30pm 7.8 7.0 6.6 92 0.6 CALM 0 0 0 0 1030.9 1030.9 0.0
24/08:00pm 8.5 7.1 7.3 92 0.6 NNE 4 6 2 3 1030.6 1030.6 0.0
24/07:30pm 8.6 7.3 7.5 93 0.5 N 4 4 2 2 1030.8 1030.8 0.0
24/07:00pm 8.2 7.1 7.0 92 0.6 N 2 4 1 2 1030.5 1030.5 0.0
24/06:30pm 8.8 8.2 7.6 92 0.6 CALM 0 0 0 0 1030.4 1030.4 0.0
24/06:00pm 9.3 8.7 7.4 88 0.9 CALM 0 0 0 0 1030.0 1030.0 0.0
24/05:30pm 9.6 8.9 6.9 83 1.3 CALM 0 0 0 0 1029.8 1029.8 0.0
24/05:00pm 10.6 9.9 7.1 79 1.6 CALM 0 0 0 0 1029.9 1029.9 0.0
24/04:30pm 11.2 9.9 7.5 78 1.8 NE 4 6 2 3 1029.8 1029.8 0.0
24/04:00pm 11.3 9.6 7.6 78 1.8 NE 6 7 3 4 1029.9 1029.9 0.0
24/03:30pm 11.5 9.7 7.2 75 2.1 NE 6 9 3 5 1029.9 1029.9 0.0
24/03:00pm 11.7 9.7 7.2 74 2.1 NE 7 9 4 5 1029.7 1029.7 0.0
24/02:30pm 12.9 11.2 7.6 70 2.6 NE 6 7 3 4 1029.5 1029.5 0.0
24/02:00pm 12.2 10.4 7.3 72 2.3 NE 6 9 3 5 1029.6 1029.6 0.0
24/01:30pm 11.2 8.9 7.3 77 1.9 ENE 9 13 5 7 1030.0 1030.0 0.0
24/01:00pm 11.8 10.0 7.1 73 2.2 NNE 6 9 3 5 1030.2 1030.2 0.0
24/12:30pm 10.6 8.7 6.9 78 1.8 NE 6 9 3 5 1030.5 1030.5 0.0
24/12:00pm 9.8 7.7 6.7 81 1.4 NE 7 11 4 6 1030.9 1030.9 0.0
24/11:30am 9.7 7.7 6.4 80 1.5 NNE 6 9 3 5 1031.4 1031.4 0.0
24/11:00am 9.7 7.6 6.8 82 1.3 NNE 7 9 4 5 1031.9 1031.9 0.0
24/10:30am 8.7 6.2 6.5 86 1.0 NNE 9 11 5 6 1031.8 1031.8 0.0
24/10:00am 8.4 5.9 6.4 87 0.9 NNE 9 13 5 7 1031.9 1031.9 0.0
24/09:30am 8.3 6.3 7.1 92 0.6 N 7 11 4 6 1031.9 1031.9 0.0
24/09:00am 7.2 5.0 6.0 92 0.5 N 7 9 4 5 1032.0 1032.0 0.0
24/08:30am 7.5 5.5 6.4 93 0.5 NNW 6 9 3 5 1031.8 1031.8 0.0
24/08:00am 6.3 4.4 5.1 92 0.5 N 4 6 2 3 1031.5 1031.5 0.0
24/07:30am 6.7 4.5 5.5 92 0.5 NNW 6 9 3 5 1031.4 1031.4 0.0
24/07:00am 7.5 5.3 6.3 92 0.5 NNW 7 11 4 6 1031.3 1031.3 0.0
24/06:30am 7.9 5.4 6.5 91 0.6 N 9 13 5 7 1030.9 1030.9 0.0
24/06:00am 8.2 5.3 6.7 90 0.7 N 11 15 6 8 1030.5 1030.5 0.0
24/05:30am 8.5 6.4 6.8 89 0.8 N 7 11 4 6 1030.5 1030.5 0.0
24/05:00am 8.6 6.4 6.4 86 1.0 NNE 7 11 4 6 1030.3 1030.3 0.0
24/04:30am 9.0 6.9 6.6 85 1.1 NE 7 11 4 6 1030.1 1030.1 0.0
24/04:00am 9.3 7.8 6.7 84 1.2 ENE 4 9 2 5 1030.3 1030.3 0.0
24/03:30am 9.2 8.5 7.0 86 1.0 CALM 0 2 0 1 1030.4 1030.4 0.0
24/03:00am 9.2 8.5 6.8 85 1.1 CALM 0 0 0 0 1030.6 1030.6 0.0
24/02:30am 9.4 7.9 7.0 85 1.1 NE 4 7 2 4 1030.6 1030.6 0.0
24/02:00am 9.3 7.8 6.7 84 1.2 NE 4 7 2 4 1030.6 1030.6 0.0
24/01:30am 9.5 8.0 6.8 83 1.3 ESE 4 6 2 3 1030.7 1030.7 0.0
24/01:00am 9.6 8.5 6.7 82 1.3 E 2 4 1 2 1031.1 1031.1 0.0
24/12:30am 9.7 7.9 7.0 83 1.3 ESE 6 9 3 5 1031.3 1031.3 0.0
24/12:00am 9.7 8.4 7.5 86 1.0 NW 4 9 2 5 1031.5 1031.5 0.0
 
Date/Time
EST
Tmp

°C
App
Tmp
°C
Dew
Point
°C
Rel
Hum
%
Delta-T

°C
Wind Press
QNH
hPa
Press
MSL
hPa
Rain
since
9 am
mm
Dir
 
Spd
km/h
Gust
km/h
Spd
kts
Gust
kts
23/11:30pm 9.3 8.5 8.1 92 0.6 NW 2 6 1 3 1031.7 1031.7 0.0
23/11:00pm 8.5 7.9 7.3 92 0.6 CALM 0 0 0 0 1031.6 1031.6 0.0
23/10:30pm 8.6 7.7 6.2 85 1.1 CALM 0 0 0 0 1031.9 1031.9 0.0
23/10:00pm 9.3 7.7 6.4 82 1.3 SE 4 6 2 3 1032.2 1032.2 0.0
23/09:30pm 10.2 8.2 6.9 80 1.6 SE 7 9 4 5 1032.2 1032.2 0.0
23/09:00pm 10.4 8.4 6.9 79 1.6 SSE 7 9 4 5 1032.2 1032.2 0.0
23/08:30pm 10.6 8.8 7.1 79 1.7 SSE 6 7 3 4 1032.2 1032.2 0.0
23/08:00pm 10.5 8.7 7.0 79 1.6 SSE 6 7 3 4 1032.2 1032.2 0.0
23/07:30pm 10.5 8.4 6.5 76 1.9 ESE 7 11 4 6 1032.1 1032.1 0.0
23/07:00pm 10.6 8.7 6.6 76 1.9 SSE 6 9 3 5 1031.9 1031.9 0.0
23/06:30pm 10.6 9.0 6.2 74 2.0 E 4 6 2 3 1031.9 1031.9 0.0
23/06:00pm 10.7 9.9 6.3 74 2.0 CALM 0 4 0 2 1031.9 1031.9 0.0
23/05:30pm 10.9 8.4 6.6 75 2.0 SE 9 15 5 8 1031.7 1031.7 0.0
23/05:00pm 11.2 8.7 6.7 74 2.1 SE 9 17 5 9 1031.7 1031.7 0.0
23/04:30pm 11.2 8.3 6.5 73 2.2 S 11 17 6 9 1031.7 1031.7 0.0
23/04:00pm 11.6 9.1 6.7 72 2.3 SSE 9 15 5 8 1031.7 1031.7 0.0

Latest Capital City Observations: Canberra | Sydney | Melbourne | Brisbane | Adelaide | Perth | Hobart | Darwin

Other Formats:

Comma delimited format used in spreadsheet applications
http://www.bom.gov.au/fwo/IDV60901/IDV60901.94857.axf

JavaScript Object Notation format (JSON) in row-major order
http://www.bom.gov.au/fwo/IDV60901/IDV60901.94857.json